Terminal Aerodrome Forecast
Issued by NWS Grand Forks, ND

Home | Current Version | Previous Version | Text Only | Print | Product List | Glossary Off
Versions: 1 2 3 4 5 6 7 8 9 10 11 12 13 14 15 16 17 18

085
FTUS43 KFGF 262339
TAFFAR
TAF
KFAR 262339Z 2700/2724 28007KT P6SM SCT035
     FM270200 21004KT P6SM SCT250
     FM271400 05004KT P6SM BKN200
     FM271500 05004KT P6SM VCSH BKN080=

USA.gov is the U.S. government's official web portal to all federal, state and local government web resources and services.